Time;durP1;ratioP1;P1;durP2;ratioP2;P2;SDS_P1;SDS_P2;PMS_P1;PMS_P2;Temp;Humidity;BMP_temperature;BMP_pressure;BME280_temperature;BME280_humidity;BME280_pressure;Samples;Min_cycle;Max_cycle;Signal;HPM_P1;HPM_P2
2022/04/05 00:00:54;;;;;;;7.70;6.93;;;7.90;51.90;;;;;;7371575;19;20145;-71
2022/04/05 00:03:23;;;;;;;8.35;6.53;;;7.80;52.00;;;;;;7376632;19;20139;-71
2022/04/05 00:05:52;;;;;;;12.23;6.78;;;7.90;51.80;;;;;;7374589;19;20155;-70
2022/04/05 00:08:26;;;;;;;5.85;5.35;;;7.80;52.10;;;;;;7370427;19;20160;-71
2022/04/05 00:10:58;;;;;;;7.60;6.60;;;7.90;52.00;;;;;;7372818;19;20160;-71
2022/04/05 00:13:28;;;;;;;9.23;6.97;;;7.80;52.20;;;;;;7372536;19;20139;-71
2022/04/05 00:16:00;;;;;;;8.20;6.35;;;7.70;52.20;;;;;;7371854;19;20147;-70
2022/04/05 00:18:29;;;;;;;6.88;6.15;;;7.80;52.20;;;;;;7372262;19;20139;-71
2022/04/05 00:21:01;;;;;;;7.03;6.30;;;7.70;52.30;;;;;;7371873;19;20145;-71
2022/04/05 00:23:38;;;;;;;8.73;5.95;;;7.70;52.20;;;;;;7374855;19;20150;-71
2022/04/05 00:26:10;;;;;;;7.13;5.80;;;7.80;52.10;;;;;;7371519;19;20135;-71
2022/04/05 00:28:40;;;;;;;7.28;6.57;;;7.90;51.90;;;;;;7370861;19;20139;-71
2022/04/05 00:31:12;;;;;;;6.57;5.68;;;7.90;51.70;;;;;;7368464;19;20190;-72
2022/04/05 00:33:43;;;;;;;6.60;5.88;;;8.00;52.00;;;;;;7374671;19;20131;-72
2022/04/05 00:36:18;;;;;;;7.85;5.50;;;8.10;51.70;;;;;;7369501;19;20151;-72
2022/04/05 00:38:50;;;;;;;5.90;5.30;;;8.10;51.60;;;;;;7373647;19;20670;-73
2022/04/05 00:41:19;;;;;;;8.65;6.32;;;8.10;51.60;;;;;;7370988;19;20131;-73
2022/04/05 00:43:51;;;;;;;6.85;6.05;;;8.10;51.60;;;;;;7375389;19;20127;-72
2022/04/05 00:46:21;;;;;;;8.90;5.22;;;8.00;51.80;;;;;;7363911;19;20190;-72
2022/04/05 00:48:55;;;;;;;7.18;6.43;;;8.00;52.50;;;;;;7375050;19;20139;-73
2022/04/05 00:51:25;;;;;;;9.98;7.13;;;7.90;51.80;;;;;;7375639;19;20135;-71
2022/04/05 00:54:00;;;;;;;8.07;6.93;;;7.90;52.00;;;;;;7373077;19;20228;-71
2022/04/05 00:56:35;;;;;;;6.90;5.97;;;7.90;52.10;;;;;;7374403;19;20174;-71
2022/04/05 00:59:07;;;;;;;6.55;5.68;;;7.90;52.10;;;;;;7375816;19;20554;-71
2022/04/05 01:01:40;;;;;;;10.70;6.40;;;7.90;52.00;;;;;;7372716;19;20735;-70
2022/04/05 01:04:11;;;;;;;6.95;5.78;;;7.90;52.10;;;;;;7371730;19;20127;-71
2022/04/05 01:06:43;;;;;;;8.10;6.43;;;7.80;52.00;;;;;;7375004;19;20591;-71
2022/04/05 01:09:15;;;;;;;8.80;5.63;;;7.80;52.20;;;;;;7368141;19;20170;-71
2022/04/05 01:11:50;;;;;;;9.55;6.40;;;7.90;52.20;;;;;;7372112;19;20138;-72
2022/04/05 01:14:22;;;;;;;9.40;6.03;;;7.80;51.90;;;;;;7370656;19;20690;-71
2022/04/05 01:16:56;;;;;;;9.20;5.97;;;7.90;51.90;;;;;;7373481;19;20599;-71
2022/04/05 01:19:30;;;;;;;9.13;6.88;;;7.90;51.80;;;;;;7371847;19;20135;-70
2022/04/05 01:21:59;;;;;;;5.93;5.30;;;7.90;51.80;;;;;;7374805;19;20128;-70
2022/04/05 01:24:32;;;;;;;6.82;5.75;;;7.90;51.90;;;;;;7369005;19;20156;-70
2022/04/05 01:27:06;;;;;;;6.50;5.88;;;7.90;52.00;;;;;;7363900;19;20139;-71
2022/04/05 01:29:38;;;;;;;8.15;6.80;;;7.80;52.50;;;;;;7365475;19;20498;-71
2022/04/05 01:32:11;;;;;;;10.52;6.43;;;7.80;52.90;;;;;;7366619;19;20154;-70
2022/04/05 01:34:45;;;;;;;8.90;6.00;;;7.90;53.00;;;;;;7373490;19;20159;-72
2022/04/05 01:37:16;;;;;;;8.32;6.40;;;8.00;53.00;;;;;;7368618;19;20170;-71
2022/04/05 01:39:48;;;;;;;7.32;6.25;;;7.80;53.20;;;;;;7370894;19;20150;-71
2022/04/05 01:42:23;;;;;;;7.50;5.40;;;7.70;53.80;;;;;;7371558;19;21210;-71
2022/04/05 01:44:52;;;;;;;8.07;5.78;;;7.70;54.00;;;;;;7366209;19;20136;-71
2022/04/05 01:47:24;;;;;;;6.70;5.82;;;7.70;54.10;;;;;;7369312;19;20127;-71
2022/04/05 01:49:58;;;;;;;7.35;6.00;;;7.70;54.20;;;;;;7372318;19;20142;-71
2022/04/05 01:52:30;;;;;;;8.80;5.88;;;7.80;54.10;;;;;;7368806;19;20131;-72
2022/04/05 01:55:12;;;;;;;9.38;5.90;;;7.80;54.30;;;;;;7373438;19;21036;-72
2022/04/05 01:57:41;;;;;;;6.05;5.32;;;7.80;54.40;;;;;;7367223;19;20167;-71
2022/04/05 02:00:14;;;;;;;7.82;5.95;;;7.80;54.40;;;;;;7372278;19;20142;-77
2022/04/05 02:02:46;;;;;;;7.25;6.15;;;7.80;54.50;;;;;;7369360;19;20139;-75
2022/04/05 02:05:18;;;;;;;8.27;5.47;;;7.80;55.10;;;;;;7371558;19;20146;-75
2022/04/05 02:07:50;;;;;;;8.10;6.38;;;7.90;55.80;;;;;;7370185;19;20838;-76
2022/04/05 02:10:24;;;;;;;9.18;6.53;;;7.80;56.30;;;;;;7366675;19;20178;-75
2022/04/05 02:12:58;;;;;;;9.82;6.50;;;7.70;56.60;;;;;;7364237;19;20237;-76
2022/04/05 02:15:38;;;;;;;9.52;6.32;;;7.70;57.10;;;;;;7366806;19;20142;-74
2022/04/05 02:18:14;;;;;;;9.38;7.05;;;7.70;58.20;;;;;;7371580;19;20128;-77
2022/04/05 02:20:49;;;;;;;8.85;6.90;;;7.80;57.60;;;;;;7369410;19;20162;-80
2022/04/05 02:23:25;;;;;;;6.53;5.60;;;7.70;56.90;;;;;;7368298;19;20660;-77
2022/04/05 02:26:17;;;;;;;7.63;6.25;;;7.60;57.00;;;;;;7369136;19;20152;-76
2022/04/05 02:28:52;;;;;;;7.32;5.93;;;7.60;57.30;;;;;;7366819;19;20147;-75
2022/04/05 02:31:28;;;;;;;8.45;6.18;;;7.50;57.20;;;;;;7365548;19;20682;-71
2022/04/05 02:33:58;;;;;;;9.27;6.75;;;7.60;58.80;;;;;;7368065;19;20144;-70
2022/04/05 02:36:38;;;;;;;7.50;6.28;;;7.50;59.00;;;;;;7371132;19;20159;-71
2022/04/05 02:39:11;;;;;;;7.07;6.35;;;7.30;62.50;;;;;;7364475;19;20140;-71
2022/04/05 02:41:44;;;;;;;9.43;6.30;;;7.20;65.80;;;;;;7369249;19;20608;-71
2022/04/05 02:44:18;;;;;;;8.70;6.03;;;7.10;62.80;;;;;;7367691;19;20150;-70
2022/04/05 02:46:47;;;;;;;17.55;6.50;;;7.10;62.30;;;;;;7370594;19;20141;-72
2022/04/05 02:49:20;;;;;;;10.27;7.82;;;7.20;60.80;;;;;;7368602;19;20560;-70
2022/04/05 02:51:54;;;;;;;8.07;5.90;;;7.00;61.20;;;;;;7370198;19;20139;-72
2022/04/05 02:54:31;;;;;;;7.07;6.05;;;7.10;62.10;;;;;;7366423;19;20135;-70
2022/04/05 02:57:06;;;;;;;10.13;7.03;;;7.20;60.20;;;;;;7374951;19;20388;-70
2022/04/05 02:59:36;;;;;;;7.38;5.53;;;7.30;60.70;;;;;;7376284;19;20139;-70
2022/04/05 03:02:09;;;;;;;6.10;5.50;;;7.50;60.20;;;;;;7372821;19;20146;-72
2022/04/05 03:04:39;;;;;;;8.15;6.63;;;7.60;59.80;;;;;;7379669;19;20495;-72
2022/04/05 03:07:11;;;;;;;7.15;6.45;;;7.70;59.60;;;;;;7373832;19;20146;-73
2022/04/05 03:09:42;;;;;;;9.20;5.63;;;7.70;58.70;;;;;;7369828;19;20604;-71
2022/04/05 03:12:18;;;;;;;9.10;6.07;;;7.70;59.30;;;;;;7376571;19;20159;-71
2022/04/05 03:14:51;;;;;;;7.63;6.22;;;7.60;59.00;;;;;;7374192;19;20198;-71
2022/04/05 03:17:25;;;;;;;6.03;5.43;;;7.60;59.10;;;;;;7374940;19;20152;-71
2022/04/05 03:19:58;;;;;;;7.03;6.25;;;7.60;58.60;;;;;;7374496;19;20156;-71
2022/04/05 03:22:28;;;;;;;9.05;6.65;;;7.50;62.90;;;;;;7377004;19;20148;-71
2022/04/05 03:24:59;;;;;;;7.95;6.63;;;7.40;61.50;;;;;;7373687;19;20584;-71
2022/04/05 03:27:31;;;;;;;6.28;5.25;;;7.40;63.60;;;;;;7375550;19;20140;-71
2022/04/05 03:30:03;;;;;;;8.80;6.45;;;7.40;63.50;;;;;;7371766;19;20210;-71
2022/04/05 03:32:33;;;;;;;7.28;5.72;;;7.40;62.30;;;;;;7366515;19;20151;-72
2022/04/05 03:35:03;;;;;;;8.00;6.00;;;7.40;63.20;;;;;;7378394;19;20150;-72
2022/04/05 03:37:35;;;;;;;9.48;6.18;;;7.50;63.30;;;;;;7373803;19;20141;-71
2022/04/05 03:40:06;;;;;;;7.68;6.05;;;7.60;61.20;;;;;;7372338;19;20867;-70
2022/04/05 03:42:41;;;;;;;8.90;6.70;;;7.60;61.60;;;;;;7370833;19;20524;-70
2022/04/05 03:45:13;;;;;;;7.15;5.65;;;7.70;61.70;;;;;;7370705;19;20155;-71
2022/04/05 03:47:46;;;;;;;7.15;5.55;;;7.70;61.40;;;;;;7372086;19;20165;-73
2022/04/05 03:50:18;;;;;;;9.65;7.63;;;7.70;61.90;;;;;;7374702;19;20172;-71
2022/04/05 03:52:53;;;;;;;6.63;5.68;;;7.80;61.30;;;;;;7371981;19;20139;-71
2022/04/05 03:55:30;;;;;;;8.90;6.63;;;7.80;59.90;;;;;;7370922;19;20146;-71
2022/04/05 03:58:07;;;;;;;10.52;6.00;;;7.80;59.80;;;;;;7379002;19;20139;-72
2022/04/05 04:00:39;;;;;;;6.85;6.07;;;7.80;58.40;;;;;;7364595;19;20135;-71
2022/04/05 04:03:21;;;;;;;8.30;6.18;;;7.80;59.60;;;;;;7378422;19;20139;-73
2022/04/05 04:05:55;;;;;;;6.80;6.10;;;7.80;60.70;;;;;;7365216;19;20136;-71
2022/04/05 04:08:27;;;;;;;7.80;6.32;;;7.80;59.60;;;;;;7373000;19;20632;-71
2022/04/05 04:10:59;;;;;;;7.32;5.63;;;7.70;59.10;;;;;;7367012;19;20164;-72
2022/04/05 04:13:34;;;;;;;8.88;6.20;;;7.70;59.10;;;;;;7374704;19;20156;-72
2022/04/05 04:16:07;;;;;;;6.88;5.35;;;7.80;59.20;;;;;;7370562;19;20158;-72
2022/04/05 04:18:39;;;;;;;6.25;5.65;;;7.70;58.70;;;;;;7374112;19;20494;-71
2022/04/05 04:21:11;;;;;;;7.57;6.60;;;7.70;59.40;;;;;;7371184;19;20156;-72
2022/04/05 04:23:42;;;;;;;9.18;5.70;;;7.70;59.10;;;;;;7374574;19;20256;-73
2022/04/05 04:26:21;;;;;;;7.53;5.85;;;7.70;60.80;;;;;;7369091;19;20139;-72
2022/04/05 04:28:57;;;;;;;8.48;5.80;;;7.70;60.50;;;;;;7371597;19;20139;-72
2022/04/05 04:31:29;;;;;;;10.20;6.30;;;7.70;59.10;;;;;;7359335;19;20166;-70
2022/04/05 04:34:18;;;;;;;8.23;6.03;;;7.60;62.50;;;;;;7361574;19;20163;-71
2022/04/05 04:36:50;;;;;;;6.70;5.38;;;7.50;60.90;;;;;;7368223;19;20140;-72
2022/04/05 04:39:20;;;;;;;6.18;5.55;;;7.60;62.80;;;;;;7371995;19;20139;-72
2022/04/05 04:41:56;;;;;;;6.80;5.45;;;7.60;62.40;;;;;;7367333;19;20139;-71
2022/04/05 04:44:28;;;;;;;7.78;6.28;;;7.50;62.60;;;;;;7378068;19;20131;-75
2022/04/05 04:46:58;;;;;;;7.82;5.82;;;7.40;64.40;;;;;;7373032;19;20172;-75
2022/04/05 04:49:30;;;;;;;9.82;7.32;;;7.20;70.70;;;;;;7376267;19;20136;-75
2022/04/05 04:51:59;;;;;;;8.45;6.43;;;7.00;68.50;;;;;;7370588;19;20202;-76
2022/04/05 04:54:33;;;;;;;7.68;6.82;;;6.90;69.10;;;;;;7372459;19;20139;-75
2022/04/05 04:57:05;;;;;;;8.05;6.72;;;6.90;71.80;;;;;;7377410;19;20143;-76
2022/04/05 04:59:37;;;;;;;8.32;7.03;;;7.00;71.20;;;;;;7373215;19;20143;-75
2022/04/05 05:02:09;;;;;;;9.27;7.25;;;7.10;70.70;;;;;;7362277;19;20142;-77
2022/04/05 05:04:38;;;;;;;8.75;6.13;;;7.10;71.90;;;;;;7375693;19;20144;-77
2022/04/05 05:07:10;;;;;;;8.00;6.38;;;7.00;70.00;;;;;;7376730;19;20136;-77
2022/04/05 05:09:40;;;;;;;9.13;6.50;;;7.10;70.60;;;;;;7368398;19;20229;-76
2022/04/05 05:12:11;;;;;;;11.43;7.32;;;7.10;70.90;;;;;;7367005;19;21195;-77
2022/04/05 05:14:43;;;;;;;8.55;7.30;;;7.10;69.20;;;;;;7373558;19;20181;-76
2022/04/05 05:17:13;;;;;;;8.80;6.97;;;7.30;70.50;;;;;;7367066;19;20162;-70
2022/04/05 05:19:42;;;;;;;12.27;6.60;;;7.30;68.20;;;;;;7364438;19;20142;-71
2022/04/05 05:22:14;;;;;;;7.85;7.05;;;7.30;68.50;;;;;;7371873;19;20169;-70
2022/04/05 05:24:43;;;;;;;8.85;5.78;;;7.30;69.40;;;;;;7370629;19;20173;-70
2022/04/05 05:27:15;;;;;;;9.10;6.88;;;7.40;70.10;;;;;;7363525;19;20139;-71
2022/04/05 05:29:47;;;;;;;8.23;5.65;;;7.40;68.30;;;;;;7343776;19;20186;-70
2022/04/05 05:32:19;;;;;;;9.63;7.03;;;7.30;70.10;;;;;;7368247;19;21667;-71
2022/04/05 05:34:51;;;;;;;7.25;6.18;;;7.40;69.80;;;;;;7366326;19;20164;-70
2022/04/05 05:37:22;;;;;;;12.23;6.40;;;7.30;68.40;;;;;;7365392;19;20534;-71
2022/04/05 05:39:54;;;;;;;8.40;6.75;;;7.30;69.40;;;;;;7369937;19;20177;-71
2022/04/05 05:42:27;;;;;;;7.90;6.15;;;7.30;69.40;;;;;;7370883;19;20139;-71
2022/04/05 05:44:58;;;;;;;10.75;7.28;;;7.30;69.20;;;;;;7372916;19;20136;-71
2022/04/05 05:47:30;;;;;;;7.40;6.32;;;7.30;71.60;;;;;;7374626;19;20140;-71
2022/04/05 05:50:05;;;;;;;7.10;5.82;;;7.40;71.20;;;;;;7373976;19;20131;-71
2022/04/05 05:52:37;;;;;;;9.68;7.18;;;7.40;70.20;;;;;;7373786;19;20143;-71
2022/04/05 05:55:07;;;;;;;10.80;6.25;;;7.30;74.00;;;;;;7375030;19;20135;-71
2022/04/05 05:57:40;;;;;;;6.82;5.80;;;7.20;73.70;;;;;;7373758;19;20130;-71
2022/04/05 06:00:21;;;;;;;7.50;5.63;;;7.20;71.60;;;;;;7375824;19;20170;-72
2022/04/05 06:02:56;;;;;;;8.10;6.60;;;7.00;73.70;;;;;;7371358;19;20164;-72
2022/04/05 06:05:29;;;;;;;9.30;6.05;;;6.80;75.90;;;;;;7369565;19;20135;-71
2022/04/05 06:08:04;;;;;;;8.65;7.03;;;6.90;78.20;;;;;;7377034;19;20146;-70
2022/04/05 06:10:36;;;;;;;9.60;7.10;;;7.00;76.20;;;;;;7370939;19;20245;-71
2022/04/05 06:13:08;;;;;;;9.30;6.90;;;7.00;77.10;;;;;;7377203;19;20138;-71
2022/04/05 06:15:45;;;;;;;7.18;6.10;;;7.20;76.20;;;;;;7373557;19;20150;-71
2022/04/05 06:18:17;;;;;;;11.80;7.35;;;7.20;72.70;;;;;;7374543;19;20159;-71
2022/04/05 06:20:48;;;;;;;9.15;7.13;;;7.10;75.20;;;;;;7373976;19;20142;-71
2022/04/05 06:23:18;;;;;;;7.65;5.90;;;7.10;75.20;;;;;;7374561;19;20169;-71
2022/04/05 06:25:50;;;;;;;7.90;6.20;;;7.10;76.20;;;;;;7372075;19;20247;-71
2022/04/05 06:28:22;;;;;;;9.15;6.70;;;7.20;75.30;;;;;;7373280;19;20132;-71
2022/04/05 06:30:57;;;;;;;7.30;6.57;;;7.30;74.30;;;;;;7372071;19;20670;-72
2022/04/05 06:33:27;;;;;;;8.35;6.35;;;7.30;74.20;;;;;;7377105;19;20241;-71
2022/04/05 06:36:00;;;;;;;7.03;5.95;;;7.20;71.40;;;;;;7379604;19;20141;-71
2022/04/05 06:38:30;;;;;;;8.50;6.50;;;7.20;74.70;;;;;;7380677;19;20127;-71
2022/04/05 06:41:00;;;;;;;9.73;6.63;;;7.30;73.70;;;;;;7379548;19;20143;-71
2022/04/05 06:43:41;;;;;;;8.88;6.97;;;7.40;72.60;;;;;;7378074;19;20168;-71
2022/04/05 06:46:16;;;;;;;6.93;5.85;;;7.50;72.70;;;;;;7379488;19;20159;-72
2022/04/05 06:48:47;;;;;;;6.13;5.50;;;7.50;71.80;;;;;;7378651;19;20145;-70
2022/04/05 06:51:20;;;;;;;7.28;5.50;;;7.50;71.50;;;;;;7378072;19;20131;-71
2022/04/05 06:53:50;;;;;;;10.68;6.60;;;7.40;72.00;;;;;;7380405;19;20865;-71
2022/04/05 06:56:25;;;;;;;6.35;5.63;;;7.40;71.20;;;;;;7378184;19;20148;-71
2022/04/05 06:58:54;;;;;;;8.45;6.68;;;7.40;72.80;;;;;;7379126;19;20164;-71
2022/04/05 07:01:26;;;;;;;7.07;6.15;;;7.50;73.10;;;;;;7379058;19;20246;-71
2022/04/05 07:03:58;;;;;;;10.68;5.95;;;7.40;73.90;;;;;;7382010;19;20139;-71
2022/04/05 07:06:27;;;;;;;6.97;5.85;;;7.40;76.60;;;;;;7376885;19;20139;-71
2022/04/05 07:08:57;;;;;;;9.45;6.15;;;7.40;73.50;;;;;;7380472;19;20139;-71
2022/04/05 07:11:29;;;;;;;7.90;5.05;;;7.30;75.70;;;;;;7376512;19;20295;-71
2022/04/05 07:14:02;;;;;;;7.15;5.50;;;7.40;73.90;;;;;;7381006;19;20203;-71
2022/04/05 07:16:36;;;;;;;6.68;5.70;;;7.50;72.90;;;;;;7378054;19;20146;-70
2022/04/05 07:19:09;;;;;;;8.40;5.50;;;7.50;70.90;;;;;;7380572;19;20130;-71
2022/04/05 07:21:40;;;;;;;7.63;5.43;;;7.50;71.60;;;;;;7382188;19;20169;-71
2022/04/05 07:24:15;;;;;;;7.70;5.75;;;7.60;71.40;;;;;;7378419;19;20127;-71
2022/04/05 07:26:47;;;;;;;8.20;5.93;;;7.70;71.70;;;;;;7378438;19;20150;-71
2022/04/05 07:29:17;;;;;;;9.80;5.30;;;7.80;71.10;;;;;;7378322;19;20127;-71
2022/04/05 07:31:49;;;;;;;8.57;6.05;;;7.80;70.50;;;;;;7374060;19;20151;-71
2022/04/05 07:34:23;;;;;;;6.65;5.28;;;7.90;70.50;;;;;;7378138;19;20170;-73
2022/04/05 07:36:53;;;;;;;10.45;6.10;;;7.90;69.60;;;;;;7378490;19;20233;-74
2022/04/05 07:39:25;;;;;;;7.80;5.90;;;7.90;68.90;;;;;;7378692;19;20132;-77
2022/04/05 07:42:21;;;;;;;7.93;5.47;;;8.00;68.50;;;;;;7375885;19;20166;-76
2022/04/05 07:44:56;;;;;;;8.15;5.97;;;7.90;69.30;;;;;;7378940;19;20218;-76
2022/04/05 07:47:28;;;;;;;6.50;5.28;;;7.90;68.60;;;;;;7380335;19;21182;-77
2022/04/05 07:50:06;;;;;;;5.78;4.70;;;8.00;69.60;;;;;;7375851;19;20178;-75
2022/04/05 07:52:35;;;;;;;9.48;5.40;;;8.10;67.70;;;;;;7379288;19;20150;-76
2022/04/05 07:55:09;;;;;;;7.25;5.78;;;8.10;67.70;;;;;;7378250;19;20170;-75
2022/04/05 07:57:41;;;;;;;5.68;4.90;;;8.20;68.50;;;;;;7379946;19;20146;-76
2022/04/05 08:00:17;;;;;;;9.15;6.72;;;8.20;69.60;;;;;;7379098;19;20151;-77
2022/04/05 08:02:51;;;;;;;8.60;6.13;;;8.20;69.60;;;;;;7378409;19;20135;-77
2022/04/05 08:05:21;;;;;;;10.63;6.38;;;8.20;69.10;;;;;;7378090;19;20216;-77
2022/04/05 08:07:53;;;;;;;7.85;5.80;;;8.40;70.40;;;;;;7378190;19;20214;-77
2022/04/05 08:10:25;;;;;;;8.00;5.10;;;8.70;68.10;;;;;;7375001;19;20695;-74
2022/04/05 08:12:57;;;;;;;7.05;5.10;;;8.80;67.70;;;;;;7378311;19;20124;-74
2022/04/05 08:15:29;;;;;;;7.17;5.63;;;8.90;65.80;;;;;;7375198;19;20140;-73
2022/04/05 08:18:03;;;;;;;5.77;4.87;;;9.10;64.20;;;;;;7375179;19;20854;-72
2022/04/05 08:20:39;;;;;;;10.10;6.47;;;9.10;64.90;;;;;;7376592;19;20379;-72
2022/04/05 08:23:11;;;;;;;7.90;6.10;;;9.00;65.20;;;;;;7377280;19;20372;-74
2022/04/05 08:25:40;;;;;;;8.02;5.60;;;9.00;67.60;;;;;;7378695;19;20475;-73
2022/04/05 08:28:10;;;;;;;6.30;5.10;;;9.00;69.50;;;;;;7376087;19;20156;-72
2022/04/05 08:30:40;;;;;;;10.52;5.97;;;9.00;70.00;;;;;;7374969;19;20588;-72
2022/04/05 08:33:12;;;;;;;6.20;4.65;;;8.80;68.60;;;;;;7377552;19;20273;-72
2022/04/05 08:35:46;;;;;;;6.05;4.95;;;8.80;68.90;;;;;;7375847;19;20160;-72
2022/04/05 08:38:18;;;;;;;6.40;5.32;;;8.80;68.70;;;;;;7377428;19;20141;-72
2022/04/05 08:40:49;;;;;;;5.20;4.45;;;8.80;67.40;;;;;;7374719;19;20153;-72
2022/04/05 08:43:19;;;;;;;6.57;5.30;;;8.90;67.90;;;;;;7376675;19;20623;-72
2022/04/05 08:45:59;;;;;;;5.55;5.05;;;8.90;68.60;;;;;;7378057;19;20130;-73
2022/04/05 08:48:37;;;;;;;6.10;4.93;;;8.90;70.60;;;;;;7378815;19;20219;-72
2022/04/05 08:51:10;;;;;;;5.65;4.75;;;8.90;70.50;;;;;;7376203;19;20143;-73
2022/04/05 08:53:42;;;;;;;6.75;4.80;;;9.10;69.70;;;;;;7373822;19;20157;-73
2022/04/05 08:56:15;;;;;;;5.30;4.38;;;9.10;69.10;;;;;;7375831;19;20127;-74
2022/04/05 08:58:46;;;;;;;5.65;4.72;;;9.20;67.80;;;;;;7378350;19;20139;-73
2022/04/05 09:01:16;;;;;;;8.23;5.13;;;9.30;68.40;;;;;;7373944;19;20128;-72
2022/04/05 09:03:51;;;;;;;7.70;4.72;;;9.40;66.90;;;;;;7376134;19;20871;-73
2022/04/05 09:06:28;;;;;;;4.60;3.95;;;9.30;69.10;;;;;;7375211;19;21008;-74
2022/04/05 09:09:12;;;;;;;6.85;4.50;;;9.40;67.80;;;;;;7377503;19;20139;-75
2022/04/05 09:11:46;;;;;;;5.70;5.15;;;9.60;67.90;;;;;;7376091;19;20245;-73
2022/04/05 09:14:25;;;;;;;6.30;4.10;;;9.80;67.80;;;;;;7375350;19;20144;-72
2022/04/05 09:17:07;;;;;;;4.40;3.90;;;9.80;66.90;;;;;;7375841;19;20147;-73
2022/04/05 09:19:45;;;;;;;8.02;4.93;;;9.80;67.50;;;;;;7374467;19;20495;-73
2022/04/05 09:22:18;;;;;;;9.80;4.37;;;9.90;67.70;;;;;;7377644;19;20131;-72
2022/04/05 09:24:49;;;;;;;8.03;4.90;;;9.80;66.90;;;;;;7375959;19;20368;-72
2022/04/05 09:27:23;;;;;;;5.40;4.30;;;9.80;66.90;;;;;;7376071;19;20370;-74
2022/04/05 09:29:55;;;;;;;6.23;4.20;;;9.80;68.20;;;;;;7375380;19;20454;-72
2022/04/05 09:32:40;;;;;;;5.53;3.60;;;9.90;67.60;;;;;;7371622;19;20408;-72
2022/04/05 09:35:18;;;;;;;4.87;3.80;;;10.00;65.70;;;;;;7375559;19;20444;-71
2022/04/05 09:37:51;;;;;;;6.87;4.27;;;10.20;65.40;;;;;;7374239;19;20836;-72
2022/04/05 09:40:24;;;;;;;6.77;4.07;;;10.30;66.40;;;;;;7374645;19;20412;-72
2022/04/05 09:43:04;;;;;;;4.93;4.43;;;10.40;66.50;;;;;;7373837;19;20376;-72
2022/04/05 09:45:47;;;;;;;6.67;4.80;;;10.50;65.00;;;;;;7376857;19;20463;-72
2022/04/05 09:48:17;;;;;;;4.93;4.10;;;10.60;65.00;;;;;;7372831;19;21297;-72
2022/04/05 09:51:12;;;;;;;9.47;4.40;;;10.60;64.70;;;;;;7371643;19;20485;-72
2022/04/05 09:53:47;;;;;;;3.13;2.67;;;10.60;65.80;;;;;;7375053;19;20964;-72
2022/04/05 09:56:21;;;;;;;3.83;3.27;;;10.60;66.30;;;;;;7372588;19;20937;-71
2022/04/05 09:59:02;;;;;;;4.67;3.97;;;10.40;66.00;;;;;;7374020;19;20392;-72
2022/04/05 10:01:36;;;;;;;8.17;4.30;;;10.40;67.50;;;;;;7374142;19;21027;-72
2022/04/05 10:04:12;;;;;;;4.40;3.70;;;10.40;67.70;;;;;;7373984;19;20372;-72
2022/04/05 10:06:47;;;;;;;4.90;3.80;;;10.30;69.30;;;;;;7374541;19;21281;-72
2022/04/05 10:09:21;;;;;;;5.33;4.00;;;10.20;69.50;;;;;;7383578;19;20416;-72
2022/04/05 10:11:53;;;;;;;5.57;4.27;;;10.20;70.20;;;;;;7378887;19;20383;-71
2022/04/05 10:14:26;;;;;;;6.13;4.20;;;10.20;76.60;;;;;;7380684;19;20400;-71
2022/04/05 10:16:59;;;;;;;4.97;3.70;;;10.20;73.60;;;;;;7381210;19;20873;-73
2022/04/05 10:19:28;;;;;;;5.70;4.57;;;10.20;72.10;;;;;;7381634;19;20424;-72
2022/04/05 10:22:03;;;;;;;5.47;4.00;;;10.10;74.10;;;;;;7380787;19;20416;-72
2022/04/05 10:24:37;;;;;;;4.37;3.30;;;10.00;78.20;;;;;;7381951;19;20854;-72
2022/04/05 10:27:10;;;;;;;6.50;4.30;;;10.00;75.70;;;;;;7380957;19;20455;-71
2022/04/05 10:29:42;;;;;;;5.50;4.10;;;9.80;74.80;;;;;;7380033;19;21277;-72
2022/04/05 10:32:20;;;;;;;5.87;4.13;;;10.00;74.60;;;;;;7377131;19;20423;-74
2022/04/05 10:34:57;;;;;;;4.17;3.77;;;10.00;75.10;;;;;;7381929;19;20400;-71
2022/04/05 10:37:36;;;;;;;6.37;4.27;;;10.20;75.60;;;;;;7360628;19;20400;-72
2022/04/05 10:40:17;;;;;;;4.70;3.90;;;10.10;73.80;;;;;;7357601;19;20803;-72
2022/04/05 10:42:49;;;;;;;4.93;3.40;;;10.20;74.90;;;;;;7367764;19;20414;-74
2022/04/05 10:45:23;;;;;;;5.37;3.67;;;10.10;75.20;;;;;;7378179;19;20755;-77
2022/04/05 10:48:04;;;;;;;7.83;4.80;;;10.20;74.30;;;;;;7379071;19;20404;-78
2022/04/05 10:50:36;;;;;;;4.77;3.50;;;10.30;75.90;;;;;;7374747;19;20436;-78
2022/04/05 10:53:35;;;;;;;3.90;3.40;;;10.40;73.40;;;;;;7375150;19;20416;-78
2022/04/05 10:56:23;;;;;;;4.27;3.87;;;10.50;74.10;;;;;;7380482;19;20777;-76
2022/04/05 10:59:18;;;;;;;5.20;3.97;;;10.60;74.40;;;;;;7375368;19;20419;-78
2022/04/05 11:01:48;;;;;;;4.40;3.57;;;10.70;74.30;;;;;;7373108;19;20421;-77
2022/04/05 11:04:33;;;;;;;3.93;3.50;;;10.70;73.20;;;;;;7371375;19;20454;-77
2022/04/05 11:07:12;;;;;;;4.93;4.10;;;10.70;73.00;;;;;;7379123;19;20921;-77
2022/04/05 11:09:51;;;;;;;6.10;4.40;;;10.70;72.80;;;;;;7372149;19;20415;-77
2022/04/05 11:12:26;;;;;;;5.30;4.27;;;10.80;72.00;;;;;;7370984;19;20775;-78
2022/04/05 11:14:58;;;;;;;4.80;3.67;;;10.80;72.20;;;;;;7368258;19;20404;-78
2022/04/05 11:17:29;;;;;;;3.47;2.90;;;10.80;73.40;;;;;;7374510;19;20424;-78
2022/04/05 11:20:00;;;;;;;6.60;3.13;;;10.90;71.80;;;;;;7379147;19;20469;-81
2022/04/05 11:22:35;;;;;;;4.67;3.10;;;10.90;71.10;;;;;;7373073;19;20425;-81
2022/04/05 11:25:13;;;;;;;4.57;3.17;;;10.90;71.30;;;;;;7376276;19;20980;-81
2022/04/05 11:27:53;;;;;;;4.57;3.63;;;11.00;71.20;;;;;;7370148;19;20428;-81
2022/04/05 11:30:42;;;;;;;4.13;3.20;;;11.10;71.10;;;;;;7372715;19;20432;-81
2022/04/05 11:33:17;;;;;;;4.40;3.70;;;11.10;70.50;;;;;;7372734;19;20396;-80
2022/04/05 11:35:50;;;;;;;3.40;3.10;;;11.30;71.60;;;;;;7371048;19;20425;-81
2022/04/05 11:38:31;;;;;;;3.57;3.27;;;11.30;70.20;;;;;;7374863;19;20404;-80
2022/04/05 11:41:08;;;;;;;3.93;3.20;;;11.40;69.30;;;;;;7374361;19;20488;-80
2022/04/05 11:43:41;;;;;;;3.63;3.03;;;11.30;69.60;;;;;;7377216;19;20914;-81
2022/04/05 11:46:15;;;;;;;4.87;3.23;;;11.20;71.80;;;;;;7361252;19;20399;-81
2022/04/05 11:48:46;;;;;;;3.70;3.13;;;11.20;72.10;;;;;;7377921;19;20396;-82
2022/04/05 11:51:20;;;;;;;4.47;3.40;;;11.30;70.80;;;;;;7369502;19;20397;-80
2022/04/05 11:53:52;;;;;;;3.97;3.30;;;11.20;70.30;;;;;;7375622;19;20397;-81
2022/04/05 11:56:29;;;;;;;5.20;2.63;;;11.30;70.70;;;;;;7369826;19;20419;-78
2022/04/05 11:59:02;;;;;;;4.20;2.80;;;11.60;69.00;;;;;;7376548;19;20434;-79
2022/04/05 12:01:36;;;;;;;3.57;2.83;;;11.70;69.10;;;;;;7369744;19;20940;-78
2022/04/05 12:04:09;;;;;;;4.63;3.00;;;11.80;68.50;;;;;;7374342;19;20424;-78
2022/04/05 12:06:41;;;;;;;3.43;2.90;;;11.80;68.00;;;;;;7375382;19;20384;-80
2022/04/05 12:09:13;;;;;;;4.10;3.03;;;11.70;67.50;;;;;;7373374;19;20376;-78
2022/04/05 12:11:47;;;;;;;4.60;2.70;;;11.80;67.90;;;;;;7370978;19;20396;-78
2022/04/05 12:14:24;;;;;;;3.33;2.80;;;11.90;66.70;;;;;;7371786;19;20416;-81
2022/04/05 12:16:57;;;;;;;5.47;3.00;;;11.90;67.40;;;;;;7376564;19;20365;-78
2022/04/05 12:19:28;;;;;;;4.00;2.83;;;11.90;69.00;;;;;;7378331;19;20412;-79
2022/04/05 12:22:05;;;;;;;4.90;3.03;;;11.90;68.30;;;;;;7375424;19;20415;-78
2022/04/05 12:24:38;;;;;;;5.43;2.70;;;12.00;67.50;;;;;;7394792;19;20376;-79
2022/04/05 12:27:10;;;;;;;2.93;2.57;;;12.00;67.10;;;;;;7411223;19;20396;-79
2022/04/05 12:29:43;;;;;;;4.67;2.93;;;11.90;67.20;;;;;;7399285;19;20426;-79
2022/04/05 12:32:16;;;;;;;4.40;2.80;;;11.90;67.00;;;;;;7399224;19;20412;-80
2022/04/05 12:34:55;;;;;;;4.90;2.80;;;11.90;68.30;;;;;;7409301;19;20409;-79
2022/04/05 12:37:24;;;;;;;3.57;2.70;;;12.00;66.90;;;;;;7411669;19;20412;-80
2022/04/05 12:39:55;;;;;;;4.23;2.93;;;12.10;66.40;;;;;;7409935;19;20401;-79
2022/04/05 12:42:27;;;;;;;3.83;2.57;;;12.00;66.90;;;;;;7425827;19;20907;-80
2022/04/05 12:45:01;;;;;;;6.93;3.47;;;12.00;66.30;;;;;;7426781;19;20396;-80
2022/04/05 12:47:35;;;;;;;2.57;2.37;;;12.00;66.70;;;;;;7427109;19;20400;-80
2022/04/05 12:50:07;;;;;;;3.67;2.87;;;11.90;66.20;;;;;;7429187;19;20393;-79
2022/04/05 12:52:47;;;;;;;3.23;2.83;;;11.90;66.50;;;;;;7426710;19;20425;-80
2022/04/05 12:55:19;;;;;;;3.03;2.73;;;11.90;67.20;;;;;;7389530;19;20431;-80
2022/04/05 12:57:54;;;;;;;6.13;3.03;;;11.90;68.40;;;;;;7391205;19;20710;-79
2022/04/05 13:00:30;;;;;;;2.87;2.30;;;11.80;67.00;;;;;;7378266;19;20404;-77
2022/04/05 13:03:12;;;;;;;2.70;2.30;;;11.80;67.10;;;;;;7371641;19;20981;-77
2022/04/05 13:08:35;;;;;;;3.20;2.40;;;11.90;66.70;;;;;;7370339;19;20924;-76
2022/04/05 13:11:22;;;;;;;3.80;3.10;;;11.90;65.30;;;;;;7371615;19;20408;-77
2022/04/05 13:14:04;;;;;;;3.73;3.13;;;11.90;67.10;;;;;;7370025;19;20483;-76
2022/04/05 13:16:34;;;;;;;4.70;2.80;;;;;;;;;;7347582;19;20478;-77
2022/04/05 13:19:11;;;;;;;5.47;3.10;;;;;;;;;;7370800;19;20404;-77
2022/04/05 13:21:44;;;;;;;4.30;2.70;;;;;;;;;;7375370;19;21030;-76
2022/04/05 13:24:17;;;;;;;3.57;2.57;;;;;;;;;;7376538;19;20784;-76
2022/04/05 13:26:47;;;;;;;2.47;2.27;;;;;;;;;;7369996;19;20528;-78
2022/04/05 13:29:20;;;;;;;3.10;2.30;;;;;;;;;;7374593;19;20392;-76
2022/04/05 13:31:53;;;;;;;5.10;1.97;;;;;;;;;;7375569;19;20980;-79